Time;durP1;ratioP1;P1;durP2;ratioP2;P2;SDS_P1;SDS_P2;PMS_P1;PMS_P2;Temp;Humidity;BMP_temperature;BMP_pressure;BME280_temperature;BME280_humidity;BME280_pressure;Samples;Min_cycle;Max_cycle;Signal;HPM_P1;HPM_P2
2021/12/13 00:01:16;;;;;;;33.30;19.30;;;10.00;99.90;;;;;;5019976;28;20683;-74
2021/12/13 00:03:51;;;;;;;48.07;19.67;;;10.00;99.90;;;;;;5025704;28;20657;-74
2021/12/13 00:06:23;;;;;;;39.97;19.33;;;10.00;99.90;;;;;;5025032;28;21111;-74
2021/12/13 00:08:55;;;;;;;53.90;21.27;;;10.00;99.90;;;;;;5026453;28;21159;-74
2021/12/13 00:11:29;;;;;;;32.83;18.10;;;10.00;99.90;;;;;;5025065;28;20605;-74
2021/12/13 00:14:50;;;;;;;32.40;19.40;;;10.00;99.90;;;;;;5008254;28;20646;-74
2021/12/13 00:17:23;;;;;;;38.03;19.90;;;10.00;99.90;;;;;;5025773;28;20756;-74
2021/12/13 00:19:52;;;;;;;38.40;19.83;;;9.90;99.90;;;;;;5021870;28;20734;-73
2021/12/13 00:22:24;;;;;;;32.30;17.70;;;10.00;99.90;;;;;;5026104;28;20614;-74
2021/12/13 00:24:53;;;;;;;41.70;21.13;;;10.00;99.90;;;;;;5024711;28;20654;-74
2021/12/13 00:27:25;;;;;;;42.60;20.57;;;10.00;99.90;;;;;;5008863;28;20647;-74
2021/12/13 00:30:09;;;;;;;34.60;18.60;;;10.00;99.90;;;;;;5024001;28;21717;-74
2021/12/13 00:32:56;;;;;;;36.23;19.70;;;10.00;99.90;;;;;;5008826;28;21185;-74
2021/12/13 00:35:28;;;;;;;34.43;19.93;;;10.00;99.90;;;;;;5025470;28;21224;-73
2021/12/13 00:38:01;;;;;;;30.93;17.90;;;10.00;99.90;;;;;;5026537;28;20666;-73
2021/12/13 00:40:34;;;;;;;33.90;18.37;;;10.00;99.90;;;;;;5028359;28;21174;-73
2021/12/13 00:43:12;;;;;;;30.23;17.87;;;10.00;99.90;;;;;;5022539;28;20612;-73
2021/12/13 00:45:49;;;;;;;27.43;16.80;;;10.00;99.90;;;;;;5025477;28;20643;-74
2021/12/13 00:48:16;;;;;;;30.10;17.40;;;10.00;99.90;;;;;;5038615;28;21292;-73
2021/12/13 00:50:59;;;;;;;24.90;16.40;;;10.00;99.90;;;;;;5040396;28;20619;-74
2021/12/13 00:53:25;;;;;;;22.90;14.60;;;10.00;99.90;;;;;;5025923;28;20623;-73
2021/12/13 00:55:51;;;;;;;23.20;14.10;;;10.00;99.90;;;;;;5026195;28;20651;-74
2021/12/13 00:58:22;;;;;;;23.17;14.73;;;10.00;99.90;;;;;;5024710;28;20177;-74
2021/12/13 01:01:08;;;;;;;22.77;13.57;;;10.00;99.90;;;;;;5023956;28;20623;-74
2021/12/13 01:03:47;;;;;;;21.33;13.77;;;10.10;99.90;;;;;;5026894;28;20694;-74
2021/12/13 01:06:50;;;;;;;20.40;12.27;;;10.10;99.90;;;;;;5027051;28;20643;-74
2021/12/13 01:09:53;;;;;;;19.80;12.37;;;10.10;99.90;;;;;;5008636;28;21029;-74
2021/12/13 01:12:21;;;;;;;20.67;12.27;;;10.10;99.90;;;;;;5026890;28;20615;-74
2021/12/13 01:15:01;;;;;;;19.43;12.57;;;10.10;99.90;;;;;;5026059;28;21059;-74
2021/12/13 01:17:53;;;;;;;18.27;11.90;;;10.10;99.90;;;;;;5023121;28;20655;-74
2021/12/13 01:20:56;;;;;;;19.63;11.93;;;10.10;99.90;;;;;;5026380;28;20742;-74
2021/12/13 01:23:40;;;;;;;18.57;11.70;;;10.10;99.90;;;;;;5025269;28;20602;-74
2021/12/13 01:26:27;;;;;;;17.60;10.90;;;10.10;99.90;;;;;;5041323;28;20619;-74
2021/12/13 01:28:59;;;;;;;14.87;10.10;;;10.10;99.90;;;;;;5029641;28;20611;-74
2021/12/13 01:31:34;;;;;;;14.70;10.30;;;10.10;99.90;;;;;;5045383;28;20587;-74
2021/12/13 01:34:04;;;;;;;18.30;11.97;;;10.20;99.90;;;;;;5012354;28;20635;-74
2021/12/13 01:36:46;;;;;;;15.47;10.60;;;10.20;99.90;;;;;;5023444;28;20996;-74
2021/12/13 01:39:24;;;;;;;15.07;10.33;;;10.20;99.90;;;;;;5022308;28;20623;-74
2021/12/13 01:42:01;;;;;;;13.93;9.30;;;10.20;99.90;;;;;;5023221;28;20626;-74
2021/12/13 01:44:35;;;;;;;16.43;9.60;;;10.20;99.90;;;;;;5001188;28;20670;-75
2021/12/13 01:47:06;;;;;;;13.20;9.43;;;10.20;99.90;;;;;;5007286;28;21133;-74
2021/12/13 01:49:47;;;;;;;14.87;9.10;;;10.20;99.90;;;;;;5024590;28;21028;-75
2021/12/13 01:52:16;;;;;;;15.40;8.50;;;10.20;99.90;;;;;;5004393;28;20624;-74
2021/12/13 01:54:43;;;;;;;14.57;9.53;;;10.20;99.90;;;;;;5023736;28;22309;-74
2021/12/13 01:59:50;;;;;;;14.10;9.20;;;10.20;99.90;;;;;;5026137;28;20698;-74
2021/12/13 02:02:42;;;;;;;13.03;9.17;;;10.30;99.90;;;;;;5008479;28;20603;-74
2021/12/13 02:05:15;;;;;;;14.60;9.40;;;10.30;99.90;;;;;;5014857;28;20639;-74
2021/12/13 02:07:48;;;;;;;14.43;8.90;;;10.30;99.90;;;;;;5022995;28;20643;-74
2021/12/13 02:10:37;;;;;;;14.80;9.40;;;10.20;99.90;;;;;;5024137;28;20989;-74
2021/12/13 02:13:15;;;;;;;11.33;7.67;;;10.30;99.90;;;;;;5023560;28;20616;-74
2021/12/13 02:18:35;;;;;;;14.50;8.43;;;10.40;99.90;;;;;;5026669;28;20982;-74
2021/12/13 02:21:16;;;;;;;12.77;8.10;;;10.30;99.90;;;;;;5023554;28;20607;-74
2021/12/13 02:23:46;;;;;;;16.60;8.97;;;10.30;99.90;;;;;;5023758;28;21130;-74
2021/12/13 02:26:15;;;;;;;14.00;8.80;;;10.30;99.90;;;;;;5020461;28;20643;-74
2021/12/13 02:28:44;;;;;;;12.90;8.27;;;10.40;99.90;;;;;;5006870;28;20674;-74
2021/12/13 02:31:14;;;;;;;14.53;8.10;;;10.40;99.90;;;;;;5019429;28;20973;-74
2021/12/13 02:33:47;;;;;;;11.83;8.17;;;10.40;99.90;;;;;;5021825;28;20623;-74
2021/12/13 02:36:18;;;;;;;13.60;8.90;;;10.40;99.90;;;;;;5022461;28;20730;-74
2021/12/13 02:38:47;;;;;;;13.67;8.57;;;10.40;99.90;;;;;;5021412;28;20650;-74
2021/12/13 02:41:15;;;;;;;9.80;7.17;;;10.40;99.90;;;;;;5005163;28;20690;-74
2021/12/13 02:43:45;;;;;;;9.67;6.07;;;10.40;99.90;;;;;;5021952;28;20631;-74
2021/12/13 02:46:11;;;;;;;10.40;6.40;;;10.40;99.90;;;;;;5021793;28;20639;-74
2021/12/13 02:48:47;;;;;;;10.13;6.40;;;10.40;99.90;;;;;;5009931;28;21053;-74
2021/12/13 02:51:29;;;;;;;11.23;7.83;;;10.40;99.90;;;;;;5027160;28;20197;-74
2021/12/13 02:54:23;;;;;;;7.93;5.80;;;10.40;99.90;;;;;;5028812;28;21145;-74
2021/12/13 02:56:54;;;;;;;7.73;5.33;;;10.40;99.90;;;;;;5027641;28;21221;-74
2021/12/13 02:59:22;;;;;;;8.53;4.90;;;10.40;99.90;;;;;;5023274;28;20628;-74
2021/12/13 03:01:57;;;;;;;8.47;5.97;;;10.50;99.90;;;;;;5026106;28;20659;-74
2021/12/13 03:04:25;;;;;;;8.40;5.87;;;10.50;99.90;;;;;;5045193;28;20871;-74
2021/12/13 03:07:38;;;;;;;8.50;6.23;;;10.50;99.90;;;;;;5045640;28;20631;-74
2021/12/13 03:10:13;;;;;;;7.40;5.10;;;10.50;99.90;;;;;;4931804;29;20655;-74
2021/12/13 03:12:39;;;;;;;8.10;6.07;;;10.50;99.90;;;;;;4908464;29;20684;-74
2021/12/13 03:15:15;;;;;;;7.70;5.67;;;10.60;99.90;;;;;;4921267;29;20715;-74
2021/12/13 03:17:47;;;;;;;8.73;5.73;;;10.60;99.90;;;;;;4907739;29;20807;-74
2021/12/13 03:20:18;;;;;;;9.73;6.93;;;10.60;99.90;;;;;;4908702;29;20699;-74
2021/12/13 03:23:02;;;;;;;8.90;6.50;;;10.50;99.90;;;;;;4922198;29;20631;-74
2021/12/13 03:25:40;;;;;;;10.07;6.93;;;10.60;99.90;;;;;;4921323;29;20671;-74
2021/12/13 03:28:10;;;;;;;10.10;6.77;;;10.60;99.90;;;;;;4924005;29;20652;-74
2021/12/13 03:31:00;;;;;;;13.80;7.60;;;10.60;99.90;;;;;;4929982;29;20690;-74
2021/12/13 03:33:35;;;;;;;10.70;6.43;;;10.60;99.90;;;;;;4926930;29;20584;-74
2021/12/13 03:36:07;;;;;;;10.97;7.67;;;10.60;99.90;;;;;;4920961;29;20726;-75
2021/12/13 03:38:39;;;;;;;11.00;6.60;;;10.70;99.90;;;;;;4924084;29;20621;-74
2021/12/13 03:41:10;;;;;;;11.00;6.43;;;10.70;99.90;;;;;;4981755;28;20990;-74
2021/12/13 03:43:48;;;;;;;11.20;6.97;;;10.70;99.90;;;;;;5024943;28;21186;-74
2021/12/13 03:46:19;;;;;;;10.27;6.80;;;10.70;99.90;;;;;;5024122;28;20820;-74
2021/12/13 03:48:46;;;;;;;9.50;6.10;;;10.70;99.90;;;;;;5025226;28;20623;-74
2021/12/13 03:51:16;;;;;;;11.80;6.67;;;10.80;99.90;;;;;;5025564;28;20635;-74
2021/12/13 03:53:45;;;;;;;10.73;6.33;;;10.80;99.90;;;;;;5026091;28;20607;-74
2021/12/13 03:56:15;;;;;;;8.40;6.60;;;10.70;99.90;;;;;;5024137;28;20756;-74
2021/12/13 03:58:48;;;;;;;9.47;5.70;;;10.80;99.90;;;;;;5024176;28;21288;-74
2021/12/13 04:01:27;;;;;;;9.20;5.97;;;10.80;99.90;;;;;;5024823;28;20634;-74
2021/12/13 04:04:03;;;;;;;8.30;5.20;;;10.80;99.90;;;;;;5025043;28;20940;-74
2021/12/13 04:06:29;;;;;;;10.47;6.47;;;10.80;99.90;;;;;;5013616;28;20638;-74
2021/12/13 04:09:00;;;;;;;9.13;6.50;;;10.80;99.90;;;;;;5025206;28;20619;-74
2021/12/13 04:11:28;;;;;;;8.73;6.20;;;10.80;99.90;;;;;;5009558;28;20201;-75
2021/12/13 04:14:05;;;;;;;8.90;6.57;;;10.80;99.90;;;;;;5025597;28;20642;-74
2021/12/13 04:16:49;;;;;;;10.10;6.63;;;10.80;99.90;;;;;;5023205;28;20632;-74
2021/12/13 04:19:22;;;;;;;10.97;7.00;;;10.90;99.90;;;;;;5022861;28;20627;-74
2021/12/13 04:21:59;;;;;;;14.23;7.23;;;10.80;99.90;;;;;;5025764;28;20610;-74
2021/12/13 04:24:57;;;;;;;10.60;6.93;;;10.80;99.90;;;;;;5025701;28;21101;-74
2021/12/13 04:27:30;;;;;;;12.10;7.33;;;10.90;99.90;;;;;;5018508;28;20633;-74
2021/12/13 04:30:06;;;;;;;12.23;7.47;;;10.90;99.90;;;;;;5010134;28;20714;-74
2021/12/13 04:32:36;;;;;;;12.40;6.87;;;10.90;99.90;;;;;;5025413;28;20680;-74
2021/12/13 04:35:08;;;;;;;12.63;7.07;;;10.90;99.90;;;;;;5011102;28;21006;-74
2021/12/13 04:37:39;;;;;;;11.37;7.17;;;10.90;99.90;;;;;;5009329;28;20662;-74
2021/12/13 04:40:09;;;;;;;15.40;8.10;;;10.90;99.90;;;;;;5025310;28;20650;-74
2021/12/13 04:42:37;;;;;;;12.57;7.33;;;10.90;99.90;;;;;;5022424;28;20650;-74
2021/12/13 04:45:14;;;;;;;13.43;7.60;;;10.90;99.90;;;;;;5008397;28;20659;-74
2021/12/13 04:47:52;;;;;;;12.27;7.40;;;10.90;99.90;;;;;;5020915;28;21233;-74
2021/12/13 04:50:35;;;;;;;12.73;8.10;;;11.00;99.90;;;;;;5026751;28;21001;-74
2021/12/13 04:53:01;;;;;;;16.00;8.30;;;11.00;99.90;;;;;;5025940;28;20617;-74
2021/12/13 04:55:31;;;;;;;12.50;7.90;;;11.00;99.90;;;;;;5022945;28;20647;-74
2021/12/13 04:58:00;;;;;;;13.57;8.47;;;11.00;99.90;;;;;;5007608;28;21292;-74
2021/12/13 05:00:30;;;;;;;12.97;8.70;;;11.00;99.90;;;;;;5026833;28;20647;-74
2021/12/13 05:02:59;;;;;;;12.57;7.97;;;11.00;99.90;;;;;;5026847;28;20638;-74
2021/12/13 05:05:27;;;;;;;12.00;7.10;;;11.00;99.90;;;;;;5008240;28;21245;-74
2021/12/13 05:07:53;;;;;;;13.43;7.87;;;11.00;99.90;;;;;;5024111;28;20702;-74
2021/12/13 05:10:19;;;;;;;10.27;6.53;;;11.10;99.90;;;;;;5008406;28;20641;-74
2021/12/13 05:13:22;;;;;;;9.47;6.70;;;11.10;99.90;;;;;;5025855;28;20627;-74
2021/12/13 05:16:10;;;;;;;8.70;5.50;;;11.10;99.90;;;;;;5021310;28;20216;-74
2021/12/13 05:18:54;;;;;;;13.37;5.90;;;11.00;99.90;;;;;;5024816;28;20610;-74
2021/12/13 05:21:32;;;;;;;8.73;6.20;;;11.10;99.90;;;;;;5008102;28;20628;-74
2021/12/13 05:24:00;;;;;;;10.87;6.83;;;11.10;99.90;;;;;;5024213;28;20734;-75
2021/12/13 05:26:50;;;;;;;11.73;7.20;;;11.00;99.90;;;;;;5008953;28;20648;-74
2021/12/13 05:29:37;;;;;;;10.70;7.00;;;11.00;99.90;;;;;;5025576;28;20962;-74
2021/12/13 05:32:10;;;;;;;10.20;6.90;;;11.10;99.90;;;;;;5022287;28;20680;-74
2021/12/13 05:34:40;;;;;;;12.93;6.30;;;11.10;99.90;;;;;;5023345;28;20694;-74
2021/12/13 05:37:07;;;;;;;11.43;6.93;;;11.10;99.90;;;;;;5005923;28;20635;-74
2021/12/13 05:39:35;;;;;;;10.83;7.00;;;11.10;99.90;;;;;;5023343;28;20702;-74
2021/12/13 05:42:09;;;;;;;12.37;6.93;;;11.10;99.90;;;;;;5024242;28;21178;-74
2021/12/13 05:44:41;;;;;;;12.03;7.90;;;11.20;99.90;;;;;;5022430;28;20650;-74
2021/12/13 05:47:23;;;;;;;10.97;6.77;;;11.20;99.90;;;;;;5022235;28;20647;-74
2021/12/13 05:49:50;;;;;;;13.87;7.60;;;11.20;99.90;;;;;;5008091;28;20626;-74
2021/12/13 05:52:24;;;;;;;13.87;8.57;;;11.10;99.90;;;;;;5023769;28;20618;-74
2021/12/13 05:54:59;;;;;;;13.03;8.23;;;11.10;99.90;;;;;;5026443;28;20650;-74
2021/12/13 05:57:31;;;;;;;12.37;8.70;;;11.20;99.90;;;;;;5023875;28;20630;-74
2021/12/13 06:00:09;;;;;;;13.57;8.27;;;11.20;99.90;;;;;;5005397;28;20760;-74
2021/12/13 06:03:02;;;;;;;14.77;8.63;;;11.20;99.90;;;;;;5021098;28;20628;-75
2021/12/13 06:05:34;;;;;;;14.20;8.63;;;11.20;99.90;;;;;;5020806;28;20652;-74
2021/12/13 06:08:12;;;;;;;16.27;8.57;;;11.20;99.90;;;;;;5024140;28;20689;-74
2021/12/13 06:10:47;;;;;;;13.13;8.20;;;11.20;99.90;;;;;;5038854;28;20607;-74
2021/12/13 06:13:40;;;;;;;15.43;8.40;;;11.20;99.90;;;;;;5017032;28;20667;-74
2021/12/13 06:16:09;;;;;;;13.87;9.10;;;11.20;99.90;;;;;;5002765;28;20631;-74
2021/12/13 06:19:05;;;;;;;14.00;8.63;;;11.20;99.90;;;;;;5017405;28;20619;-74
2021/12/13 06:21:57;;;;;;;13.03;8.33;;;11.20;99.90;;;;;;5015735;28;20995;-74
2021/12/13 06:24:30;;;;;;;14.43;8.80;;;11.20;99.90;;;;;;5013810;28;20650;-74
2021/12/13 06:27:15;;;;;;;12.43;9.07;;;11.20;99.90;;;;;;4997048;28;21233;-74
2021/12/13 06:30:20;;;;;;;16.40;8.80;;;11.20;99.90;;;;;;4999235;28;20624;-74
2021/12/13 06:33:12;;;;;;;16.07;10.70;;;11.10;99.90;;;;;;5016282;28;20587;-74
2021/12/13 06:35:53;;;;;;;20.10;10.07;;;11.10;99.90;;;;;;5018316;28;20627;-74
2021/12/13 06:38:18;;;;;;;19.37;10.57;;;11.20;99.90;;;;;;5004012;28;20635;-74
2021/12/13 06:40:57;;;;;;;19.00;10.53;;;11.20;99.90;;;;;;5021403;28;20693;-77
2021/12/13 06:43:37;;;;;;;17.40;10.60;;;11.20;99.90;;;;;;5017064;28;20597;-77
2021/12/13 06:46:28;;;;;;;17.20;10.30;;;11.20;99.90;;;;;;5023415;28;20651;-77
2021/12/13 06:48:59;;;;;;;16.27;10.83;;;11.20;99.90;;;;;;5025553;28;20584;-78
2021/12/13 06:51:46;;;;;;;17.10;9.93;;;11.20;99.90;;;;;;5020122;28;21205;-79
2021/12/13 06:54:17;;;;;;;18.40;10.17;;;11.20;99.90;;;;;;5021400;28;20655;-78
2021/12/13 06:56:50;;;;;;;17.93;10.40;;;11.20;99.90;;;;;;5000285;28;20659;-78
2021/12/13 06:59:18;;;;;;;16.77;10.10;;;11.20;99.90;;;;;;5012889;28;20670;-78
2021/12/13 07:02:21;;;;;;;20.43;10.87;;;11.20;99.90;;;;;;5019357;28;20631;-78
2021/12/13 07:05:00;;;;;;;20.00;11.20;;;11.20;99.90;;;;;;5002281;28;20710;-78
2021/12/13 07:07:32;;;;;;;17.40;9.97;;;11.20;99.90;;;;;;5008880;28;21330;-77
2021/12/13 07:10:07;;;;;;;14.93;9.43;;;11.20;99.90;;;;;;4994603;28;20623;-77
2021/12/13 07:12:45;;;;;;;15.70;9.67;;;11.20;99.90;;;;;;5018838;28;20587;-75
2021/12/13 07:15:24;;;;;;;15.40;9.40;;;11.20;99.90;;;;;;5017995;28;20680;-75
2021/12/13 07:18:05;;;;;;;14.30;9.17;;;11.20;99.90;;;;;;5003453;28;20631;-75
2021/12/13 07:20:50;;;;;;;13.93;8.60;;;11.30;99.90;;;;;;5021542;28;21045;-74
2021/12/13 07:23:17;;;;;;;14.03;8.00;;;11.30;99.90;;;;;;4997272;28;20762;-75
2021/12/13 07:25:45;;;;;;;11.17;6.93;;;11.20;99.90;;;;;;5015945;28;20647;-75
2021/12/13 07:28:12;;;;;;;12.00;6.97;;;11.20;99.90;;;;;;5017699;28;20660;-75
2021/12/13 07:30:39;;;;;;;11.07;6.03;;;11.30;99.90;;;;;;5006822;28;20962;-75
2021/12/13 07:33:08;;;;;;;9.70;6.00;;;11.30;99.90;;;;;;5000972;28;21425;-75
2021/12/13 07:35:36;;;;;;;8.13;5.67;;;11.30;99.90;;;;;;5022083;28;20689;-75
2021/12/13 07:38:19;;;;;;;8.63;5.90;;;11.30;99.90;;;;;;5026704;28;20630;-75
2021/12/13 07:41:01;;;;;;;6.50;5.10;;;11.30;99.90;;;;;;5021529;28;20760;-75
2021/12/13 07:43:28;;;;;;;9.07;5.60;;;11.30;99.90;;;;;;5024067;28;20616;-75
2021/12/13 07:45:59;;;;;;;8.73;5.50;;;11.30;99.90;;;;;;5022523;28;20703;-74
2021/12/13 07:48:38;;;;;;;9.53;5.63;;;11.30;99.90;;;;;;5025922;28;20623;-75
2021/12/13 07:51:04;;;;;;;9.77;6.20;;;11.30;99.90;;;;;;5025332;28;20623;-75
2021/12/13 07:53:46;;;;;;;8.50;5.67;;;11.30;99.90;;;;;;5024237;28;21003;-75
2021/12/13 07:56:25;;;;;;;7.70;5.87;;;11.30;99.90;;;;;;5027671;28;20228;-75
2021/12/13 07:59:23;;;;;;;8.10;6.30;;;11.40;99.90;;;;;;5017422;28;20628;-75
2021/12/13 08:01:52;;;;;;;9.63;6.50;;;11.30;99.90;;;;;;5039446;28;20689;-75
2021/12/13 08:04:43;;;;;;;9.43;6.23;;;11.30;99.90;;;;;;5040769;28;20651;-75
2021/12/13 08:07:17;;;;;;;9.10;7.10;;;11.30;99.90;;;;;;5024982;28;20632;-75
2021/12/13 08:10:06;;;;;;;10.30;7.83;;;11.30;99.90;;;;;;5026726;28;20664;-75
2021/12/13 08:12:45;;;;;;;10.80;6.37;;;11.40;99.90;;;;;;5025726;28;20587;-75
2021/12/13 08:15:27;;;;;;;9.10;6.50;;;11.30;99.90;;;;;;5028073;28;20677;-75
2021/12/13 08:17:56;;;;;;;9.00;7.10;;;11.40;99.90;;;;;;5043156;28;20645;-75
2021/12/13 08:20:53;;;;;;;11.93;7.90;;;11.40;99.90;;;;;;5045906;28;20648;-75
2021/12/13 08:23:22;;;;;;;10.33;7.10;;;11.30;99.90;;;;;;5046601;28;20637;-75
2021/12/13 08:25:51;;;;;;;8.87;6.63;;;11.40;99.90;;;;;;5031609;28;20672;-75
2021/12/13 08:28:32;;;;;;;10.63;8.07;;;11.40;99.90;;;;;;5023999;28;20685;-75
2021/12/13 08:31:00;;;;;;;11.50;8.10;;;11.40;99.90;;;;;;5023931;28;20618;-75
2021/12/13 08:33:37;;;;;;;10.10;7.60;;;11.40;99.90;;;;;;5026349;28;20623;-75
2021/12/13 08:36:12;;;;;;;12.17;8.40;;;11.50;99.90;;;;;;5007443;28;20622;-75
2021/12/13 08:39:12;;;;;;;10.27;7.87;;;11.50;99.90;;;;;;5023966;28;20658;-75
2021/12/13 08:41:45;;;;;;;13.03;9.80;;;11.50;99.90;;;;;;4958746;28;20628;-75
2021/12/13 08:44:11;;;;;;;13.13;9.87;;;11.50;99.90;;;;;;5021431;28;20584;-75
2021/12/13 08:46:51;;;;;;;12.80;9.53;;;11.50;99.90;;;;;;5018660;28;20952;-75
2021/12/13 08:49:30;;;;;;;12.97;10.23;;;11.50;99.90;;;;;;5021220;28;20653;-75
2021/12/13 08:52:02;;;;;;;14.00;9.30;;;11.50;99.90;;;;;;5028354;28;20698;-75
2021/12/13 08:54:39;;;;;;;15.07;10.67;;;11.50;99.90;;;;;;5025501;28;21210;-75
2021/12/13 08:57:10;;;;;;;14.27;10.10;;;11.50;99.90;;;;;;5036118;28;21484;-75
2021/12/13 08:59:50;;;;;;;12.77;9.43;;;11.50;99.90;;;;;;5025777;28;20710;-74
2021/12/13 09:02:17;;;;;;;13.47;9.97;;;11.50;99.90;;;;;;5016989;28;20702;-75
2021/12/13 09:05:13;;;;;;;13.60;10.00;;;11.50;99.90;;;;;;5022475;28;21221;-75
2021/12/13 09:08:10;;;;;;;15.70;10.50;;;11.50;99.90;;;;;;5019566;28;20768;-75
2021/12/13 09:10:53;;;;;;;15.23;10.27;;;11.50;99.90;;;;;;5009964;28;21031;-75
2021/12/13 09:13:36;;;;;;;13.80;9.30;;;11.50;99.90;;;;;;5022610;28;21036;-75
2021/12/13 09:16:04;;;;;;;13.53;9.40;;;11.50;99.90;;;;;;5024608;28;20635;-75
2021/12/13 09:18:30;;;;;;;14.90;10.10;;;11.60;99.90;;;;;;5021252;28;20735;-75
2021/12/13 09:20:57;;;;;;;14.10;10.77;;;11.60;99.90;;;;;;5026489;28;20754;-75
2021/12/13 09:23:29;;;;;;;15.17;10.27;;;11.60;99.90;;;;;;5023582;28;20312;-74
2021/12/13 09:26:21;;;;;;;15.27;10.63;;;11.60;99.90;;;;;;5018457;28;20651;-75
2021/12/13 09:28:55;;;;;;;17.50;11.30;;;11.60;99.90;;;;;;5020832;28;20608;-75
2021/12/13 09:31:25;;;;;;;16.30;10.30;;;11.60;99.90;;;;;;5022932;28;20659;-75
2021/12/13 09:33:55;;;;;;;14.67;10.40;;;11.60;99.90;;;;;;5022706;28;20614;-75
2021/12/13 09:36:49;;;;;;;16.93;11.13;;;11.60;99.90;;;;;;4989123;28;20712;-75
2021/12/13 09:39:28;;;;;;;17.63;10.80;;;11.60;99.90;;;;;;5015522;28;20741;-75
2021/12/13 09:41:59;;;;;;;15.20;10.93;;;11.70;99.90;;;;;;5019105;28;20616;-75
2021/12/13 09:44:44;;;;;;;18.00;11.20;;;11.70;99.90;;;;;;5021698;28;20628;-76
2021/12/13 09:47:13;;;;;;;18.63;11.50;;;11.70;99.90;;;;;;5023815;28;20690;-75
2021/12/13 09:49:48;;;;;;;15.80;11.17;;;11.80;99.90;;;;;;5023659;28;20639;-75
2021/12/13 09:52:25;;;;;;;13.80;10.53;;;11.80;99.90;;;;;;5022315;28;20619;-75
2021/12/13 09:55:02;;;;;;;17.83;11.20;;;11.80;99.90;;;;;;5026079;28;21254;-75
2021/12/13 09:57:33;;;;;;;17.90;11.40;;;11.80;99.90;;;;;;5006332;28;21260;-75
2021/12/13 10:00:00;;;;;;;17.70;11.50;;;11.80;99.90;;;;;;5007153;28;20686;-74
2021/12/13 10:02:33;;;;;;;13.53;10.00;;;11.80;99.90;;;;;;5024569;28;20608;-75
2021/12/13 10:05:04;;;;;;;16.90;11.40;;;11.80;99.90;;;;;;5023411;28;21081;-76
2021/12/13 10:07:37;;;;;;;15.87;11.30;;;11.90;99.90;;;;;;5008574;28;21030;-75
2021/12/13 10:10:14;;;;;;;14.40;10.30;;;11.90;99.90;;;;;;5023245;28;20592;-75
2021/12/13 10:12:47;;;;;;;15.50;10.33;;;11.90;99.90;;;;;;5021677;28;20592;-75
2021/12/13 10:15:33;;;;;;;18.70;10.60;;;11.90;99.90;;;;;;5023241;28;20639;-75
2021/12/13 10:18:10;;;;;;;16.60;11.20;;;12.00;99.90;;;;;;5020457;28;20638;-75
2021/12/13 10:21:07;;;;;;;16.23;10.57;;;12.00;99.90;;;;;;5023649;28;21234;-75
2021/12/13 10:23:38;;;;;;;13.87;9.83;;;11.90;99.90;;;;;;4986375;28;21321;-75
2021/12/13 10:26:10;;;;;;;18.03;9.90;;;11.90;99.90;;;;;;5019765;28;20690;-75
2021/12/13 10:28:45;;;;;;;15.60;10.53;;;12.00;99.90;;;;;;5008523;28;20657;-75
2021/12/13 10:31:21;;;;;;;14.00;9.40;;;12.00;99.90;;;;;;5022704;28;20599;-75
2021/12/13 10:33:47;;;;;;;11.40;9.50;;;12.00;99.90;;;;;;5021592;28;20622;-75
2021/12/13 10:36:14;;;;;;;13.20;9.10;;;12.10;99.90;;;;;;5012314;28;20631;-75
2021/12/13 10:38:53;;;;;;;12.87;9.30;;;12.00;99.90;;;;;;5004075;28;21063;-74
2021/12/13 10:41:24;;;;;;;13.77;9.30;;;12.00;99.90;;;;;;5021722;28;20723;-75
2021/12/13 10:43:55;;;;;;;11.63;9.00;;;12.00;99.90;;;;;;5023770;28;20611;-75
2021/12/13 10:46:32;;;;;;;11.80;8.70;;;12.10;99.90;;;;;;5023568;28;20690;-75
2021/12/13 10:49:03;;;;;;;12.90;9.57;;;12.10;99.90;;;;;;5022461;28;21015;-75
2021/12/13 10:51:43;;;;;;;10.70;8.23;;;12.10;99.90;;;;;;5010381;28;21443;-75
2021/12/13 10:54:16;;;;;;;13.50;9.27;;;12.10;99.90;;;;;;5021133;28;20642;-75
2021/12/13 10:56:59;;;;;;;14.37;8.90;;;12.10;99.90;;;;;;5008407;28;20639;-75
2021/12/13 10:59:30;;;;;;;9.80;7.90;;;12.10;99.90;;;;;;5010340;28;20662;-74
2021/12/13 11:02:04;;;;;;;13.17;8.03;;;12.10;99.90;;;;;;5024732;28;20612;-74
2021/12/13 11:04:39;;;;;;;9.03;7.80;;;12.10;99.90;;;;;;5009800;28;20644;-75
2021/12/13 11:07:07;;;;;;;9.37;7.40;;;12.10;99.90;;;;;;5024191;28;20623;-75
2021/12/13 11:09:35;;;;;;;10.37;7.90;;;12.10;99.90;;;;;;5028402;28;20645;-74
2021/12/13 11:12:07;;;;;;;10.73;7.33;;;12.10;99.90;;;;;;5021437;28;20645;-74
2021/12/13 11:14:38;;;;;;;12.93;6.77;;;12.10;99.90;;;;;;5004267;28;20650;-74
2021/12/13 11:17:10;;;;;;;8.40;6.80;;;12.20;99.90;;;;;;5027077;28;20720;-74
2021/12/13 11:19:38;;;;;;;9.57;7.07;;;12.20;99.90;;;;;;5022834;28;21122;-74
2021/12/13 11:22:10;;;;;;;8.30;6.93;;;12.20;99.90;;;;;;5026954;28;21240;-74
2021/12/13 11:24:39;;;;;;;7.77;5.63;;;12.20;99.90;;;;;;5020296;28;20643;-74
2021/12/13 11:27:14;;;;;;;8.23;6.50;;;12.10;99.90;;;;;;5003856;28;20694;-74
2021/12/13 11:29:42;;;;;;;8.90;7.00;;;12.10;99.90;;;;;;5023359;28;20700;-74
2021/12/13 11:32:39;;;;;;;8.27;5.70;;;12.20;99.90;;;;;;5022376;28;20638;-74
2021/12/13 11:35:11;;;;;;;7.53;6.47;;;12.20;99.90;;;;;;5025719;28;20681;-74
2021/12/13 11:38:20;;;;;;;8.13;6.33;;;12.20;99.90;;;;;;5021370;28;20689;-75
2021/12/13 11:40:54;;;;;;;8.47;5.80;;;12.20;99.90;;;;;;5023545;28;20631;-75
2021/12/13 11:43:33;;;;;;;8.70;6.80;;;12.10;99.90;;;;;;5023645;28;20612;-74
2021/12/13 11:46:28;;;;;;;8.77;7.03;;;12.10;99.90;;;;;;5029668;28;20630;-74
2021/12/13 11:49:22;;;;;;;10.07;6.63;;;12.10;99.90;;;;;;5028573;28;20623;-74
2021/12/13 11:52:12;;;;;;;10.67;7.37;;;12.00;99.90;;;;;;5026541;28;20949;-74
2021/12/13 11:55:12;;;;;;;10.63;8.30;;;12.00;99.90;;;;;;5027420;28;20649;-74
2021/12/13 11:57:56;;;;;;;12.50;9.80;;;12.10;99.90;;;;;;5021285;28;20645;-74
2021/12/13 12:00:32;;;;;;;13.17;10.70;;;12.00;99.90;;;;;;5009739;28;21109;-74
2021/12/13 12:03:31;;;;;;;12.60;9.50;;;11.90;99.90;;;;;;5022988;28;20721;-74
2021/12/13 12:06:36;;;;;;;14.87;10.60;;;11.90;99.90;;;;;;5024043;28;20631;-74
2021/12/13 12:09:39;;;;;;;13.47;9.90;;;11.90;99.90;;;;;;5023636;28;20726;-74
2021/12/13 12:12:42;;;;;;;15.27;9.67;;;11.80;99.90;;;;;;5007485;28;21059;-74
2021/12/13 12:15:09;;;;;;;12.57;9.50;;;11.80;99.90;;;;;;5020575;28;20729;-74
2021/12/13 12:17:38;;;;;;;14.67;11.00;;;11.80;99.90;;;;;;5007535;28;20694;-74
2021/12/13 12:20:11;;;;;;;13.07;10.33;;;11.80;99.90;;;;;;5007413;28;20647;-74
2021/12/13 12:22:49;;;;;;;13.20;10.23;;;11.80;99.90;;;;;;5001258;28;21415;-74
2021/12/13 12:25:15;;;;;;;14.03;10.50;;;11.80;99.90;;;;;;5004604;28;20805;-74
2021/12/13 12:27:41;;;;;;;13.90;11.10;;;11.80;99.90;;;;;;5009205;28;20654;-74
2021/12/13 12:30:13;;;;;;;13.63;10.20;;;11.80;99.90;;;;;;5007157;28;20635;-74
2021/12/13 12:32:45;;;;;;;11.50;9.93;;;11.80;99.90;;;;;;5011900;28;20720;-74
2021/12/13 12:35:18;;;;;;;13.67;10.10;;;11.80;99.90;;;;;;5027430;28;20709;-74
2021/12/13 12:37:56;;;;;;;14.17;10.20;;;11.80;99.90;;;;;;5022086;28;20632;-74
2021/12/13 12:40:26;;;;;;;14.17;11.00;;;11.80;99.90;;;;;;5006556;28;20652;-74
2021/12/13 12:42:57;;;;;;;13.53;11.50;;;11.80;99.90;;;;;;5018675;28;20596;-74
2021/12/13 12:45:30;;;;;;;13.90;10.07;;;11.80;99.90;;;;;;5025017;28;20631;-74
2021/12/13 12:48:04;;;;;;;14.07;11.00;;;11.80;99.90;;;;;;5005947;28;20643;-74
2021/12/13 12:50:49;;;;;;;14.90;10.80;;;11.80;99.90;;;;;;5022004;28;20681;-74
2021/12/13 12:53:33;;;;;;;13.73;10.27;;;11.80;99.90;;;;;;5022624;28;20616;-74
2021/12/13 12:56:39;;;;;;;16.40;11.57;;;11.80;99.90;;;;;;5001091;28;20635;-76
2021/12/13 12:59:27;;;;;;;13.63;9.97;;;11.90;99.90;;;;;;5030178;28;20653;-75
2021/12/13 13:01:58;;;;;;;13.40;11.70;;;11.90;99.90;;;;;;5019063;28;20620;-75
2021/12/13 13:04:33;;;;;;;13.43;10.30;;;11.80;99.90;;;;;;5029946;28;20672;-75
2021/12/13 13:07:09;;;;;;;12.13;9.83;;;11.80;99.90;;;;;;5019862;28;20730;-75
2021/12/13 13:09:37;;;;;;;14.17;11.03;;;11.80;99.90;;;;;;5023715;28;20591;-74
2021/12/13 13:12:04;;;;;;;16.13;10.73;;;11.80;99.90;;;;;;5022379;28;20608;-75
2021/12/13 13:14:30;;;;;;;14.23;11.87;;;11.80;99.90;;;;;;5019695;28;21198;-74
2021/12/13 13:17:06;;;;;;;14.00;10.97;;;11.80;99.90;;;;;;5014420;28;20655;-74
2021/12/13 13:19:36;;;;;;;13.77;10.00;;;11.70;99.90;;;;;;5013741;28;21430;-76
2021/12/13 13:22:11;;;;;;;15.63;10.40;;;11.70;99.90;;;;;;5014429;28;20629;-74
2021/12/13 13:24:45;;;;;;;16.40;11.30;;;11.70;99.90;;;;;;4992014;28;20693;-76
2021/12/13 13:27:11;;;;;;;13.37;10.67;;;11.70;99.90;;;;;;5015575;28;20639;-75
2021/12/13 13:29:37;;;;;;;14.07;10.40;;;11.70;99.90;;;;;;5017356;28;20985;-75